地図

経路データ

SID SEASON NUMBER BASIN SUBBASIN NAME ISO_TIME NATURE LAT LON WMO_WIND WMO_PRES WMO_AGENCY TRACK_TYPE DIST2LAND LANDFALL IFLAG USA_AGENCY USA_ATCF_ID USA_LAT USA_LON USA_RECORD USA_STATUS USA_WIND USA_PRES USA_SSHS USA_R34_NE USA_R34_SE USA_R34_SW USA_R34_NW USA_R50_NE USA_R50_SE USA_R50_SW USA_R50_NW USA_R64_NE USA_R64_SE USA_R64_SW USA_R64_NW USA_POCI USA_ROCI USA_RMW USA_EYE TOKYO_LAT TOKYO_LON TOKYO_GRADE TOKYO_WIND TOKYO_PRES TOKYO_R50_DIR TOKYO_R50_LONG TOKYO_R50_SHORT TOKYO_R30_DIR TOKYO_R30_LONG TOKYO_R30_SHORT TOKYO_LAND CMA_LAT CMA_LON CMA_CAT CMA_WIND CMA_PRES HKO_LAT HKO_LON HKO_CAT HKO_WIND HKO_PRES NEWDELHI_LAT NEWDELHI_LON NEWDELHI_GRADE NEWDELHI_WIND NEWDELHI_PRES NEWDELHI_CI NEWDELHI_DP NEWDELHI_POCI REUNION_LAT REUNION_LON REUNION_TYPE REUNION_WIND REUNION_PRES REUNION_TNUM REUNION_CI REUNION_RMW REUNION_R34_NE REUNION_R34_SE REUNION_R34_SW REUNION_R34_NW REUNION_R50_NE REUNION_R50_SE REUNION_R50_SW REUNION_R50_NW REUNION_R64_NE REUNION_R64_SE REUNION_R64_SW REUNION_R64_NW BOM_LAT BOM_LON BOM_TYPE BOM_WIND BOM_PRES BOM_TNUM BOM_CI BOM_RMW BOM_R34_NE BOM_R34_SE BOM_R34_SW BOM_R34_NW BOM_R50_NE BOM_R50_SE BOM_R50_SW BOM_R50_NW BOM_R64_NE BOM_R64_SE BOM_R64_SW BOM_R64_NW BOM_ROCI BOM_POCI BOM_EYE BOM_POS_METHOD BOM_PRES_METHOD NADI_LAT NADI_LON NADI_CAT NADI_WIND NADI_PRES WELLINGTON_LAT WELLINGTON_LON WELLINGTON_WIND WELLINGTON_PRES DS824_LAT DS824_LON DS824_STAGE DS824_WIND DS824_PRES TD9636_LAT TD9636_LON TD9636_STAGE TD9636_WIND TD9636_PRES TD9635_LAT TD9635_LON TD9635_WIND TD9635_PRES TD9635_ROCI NEUMANN_LAT NEUMANN_LON NEUMANN_CLASS NEUMANN_WIND NEUMANN_PRES MLC_LAT MLC_LON MLC_CLASS MLC_WIND MLC_PRES USA_GUST BOM_GUST BOM_GUST_PER REUNION_GUST REUNION_GUST_PER USA_SEAHGT USA_SEARAD_NE USA_SEARAD_SE USA_SEARAD_SW USA_SEARAD_NW STORM_SPEED STORM_DIR
1984033S12115 1984 9 SI WA WILLY 1984-02-02 00:00:00 TS -11.5000 114.500 25 1004 bom main 302 302 ______O___O_O_ -1 -11.5000 114.500 20 25 1004 1.50000 -11.5000 114.500 1 22 -11.5000 114.500 TC 20 1004 14 269
1984033S12115 1984 9 SI WA WILLY 1984-02-02 03:00:00 TS -11.5122 113.789 main 314 314 ______P___P_P_ -1 -11.5253 113.798 20 25 1004 -11.4860 113.772 1 22 -11.5253 113.798 TC 20 1004 14 271
1984033S12115 1984 9 SI WA WILLY 1984-02-02 06:00:00 TS -11.4823 113.089 25 1004 bom main 333 332 ______O___P_O_ -1 -11.5000 113.100 20 25 1004 1.50000 -11.4468 113.065 1 22 -11.5000 113.100 TC 20 1004 14 276
1984033S12115 1984 9 SI WA WILLY 1984-02-02 09:00:00 TS -11.3780 112.414 main 337 313 ______P___P_P_ -1 -11.3874 112.420 20 25 1004 -11.3591 112.401 1 22 -11.3874 112.420 TC 20 1004 13 283
1984033S12115 1984 9 SI WA WILLY 1984-02-02 12:00:00 TS -11.2000 111.800 25 1004 bom main 313 293 ______O___O_O_ -1 -11.2000 111.800 20 25 1004 1.50000 -11.2000 111.800 1 22 -11.2000 111.800 TC 20 1004 12 290
1984033S12115 1984 9 SI WA WILLY 1984-02-02 15:00:00 TS -10.9675 111.245 main 296 270 ______P___P_P_ -1 -10.9725 111.225 20 25 1004 -10.9576 111.285 1 22 -10.9725 111.225 TC 20 1004 11 298
1984033S12115 1984 9 SI WA WILLY 1984-02-02 18:00:00 TS -10.6881 110.826 25 1005 bom main 272 244 ______O___P_O_ -1 -10.7000 110.800 20 25 1005 1.50000 -10.6643 110.879 1 22 -10.7000 110.800 TC 20 1005 9 312
1984033S12115 1984 9 SI WA WILLY 1984-02-02 21:00:00 TS -10.3829 110.582 main 244 213 ______P___P_P_ -1 -10.3924 110.568 20 25 1005 -10.3639 110.610 1 22 -10.3924 110.568 TC 20 1005 7 331
1984033S12115 1984 9 SI WA WILLY 1984-02-03 00:00:00 TS -10.1000 110.500 25 1005 bom main 213 191 ______O___O_O_ -1 -10.1000 110.500 20 25 1005 1.50000 -10.1000 110.500 1 22 -10.1000 110.500 TC 20 1005 5 351
1984033S12115 1984 9 SI WA WILLY 1984-02-03 03:00:00 TS -9.87606 110.499 main 191 168 ______P___P_P_ -1 -9.86241 110.468 20 25 1004 -9.90335 110.563 1 22 -9.86241 110.468 TC 20 1004 4 22
1984033S12115 1984 9 SI WA WILLY 1984-02-03 06:00:00 TS -9.71750 110.659 25 1004 bom main 166 147 ______O___P_O_ -1 -9.70000 110.600 20 25 1004 1.50000 -9.75250 110.778 1 22 -9.70000 110.600 TC 20 1004 6 63
1984033S12115 1984 9 SI WA WILLY 1984-02-03 09:00:00 TS -9.62521 111.001 main 147 138 ______P___P_P_ -1 -9.61263 110.963 20 25 1004 -9.65036 111.079 1 22 -9.61263 110.963 TC 20 1004 7 81
1984033S12115 1984 9 SI WA WILLY 1984-02-03 12:00:00 TS -9.60000 111.400 25 1004 bom main 138 134 ______O___O_O_ -1 -9.60000 111.400 20 25 1004 1.50000 -9.60000 111.400 1 22 -9.60000 111.400 TC 20 1004 7 90
1984033S12115 1984 9 SI WA WILLY 1984-02-03 15:00:00 TS -9.62323 111.709 main 134 134 ______P___P_P_ -1 -9.63496 111.730 20 25 1004 -9.59976 111.667 1 22 -9.63496 111.730 TC 20 1004 6 98
1984033S12115 1984 9 SI WA WILLY 1984-02-03 18:00:00 TS -9.68254 111.979 25 1004 bom main 149 149 ______O___P_O_ -1 -9.70000 112.000 20 25 1004 1.50000 -9.64762 111.937 1 22 -9.70000 112.000 TC 20 1004 5 104
1984033S12115 1984 9 SI WA WILLY 1984-02-03 21:00:00 TS -9.74554 112.221 main 155 155 ______P___P_P_ -1 -9.75749 112.238 20 25 1003 -9.72165 112.189 1 22 -9.75749 112.238 TC 22 1003 4 106
1984033S12115 1984 9 SI WA WILLY 1984-02-04 00:00:00 TS -9.80000 112.400 25 1002 bom main 160 158 ______O___O_O_ -1 -9.80000 112.400 20 25 1002 2.00000 -9.80000 112.400 1 22 -9.80000 112.400 TC 25 1002 3 104
1984033S12115 1984 9 SI WA WILLY 1984-02-04 03:00:00 TS -9.81161 112.487 main 158 158 ______P___P_P_ -1 -9.79247 112.458 20 25 1002 -9.84989 112.547 1 23 -9.79247 112.458 TC 25 1002 2 103
1984033S12115 1984 9 SI WA WILLY 1984-02-04 06:00:00 TS -9.83329 112.551 25 1002 bom main 157 157 ______O___P_O_ -1 -9.80000 112.500 20 25 1002 2.00000 -9.89988 112.653 1 24 -9.80000 112.500 TC 25 1002 2 119
1984033S12115 1984 9 SI WA WILLY 1984-02-04 09:00:00 TS -9.91165 112.672 main 168 168 ______P___P_P_ -1 -9.89252 112.642 20 25 1001 -9.94993 112.732 1 25 -9.89252 112.642 TC 25 1001 3 124
1984033S12115 1984 9 SI WA WILLY 1984-02-04 12:00:00 TS -10.0000 112.800 25 1001 bom main 179 179 ______O___O_O_ -1 -10.0000 112.800 20 25 1001 2.00000 -10.0000 112.800 1 27 -10.0000 112.800 TC 25 1001 3 122
1984033S12115 1984 9 SI WA WILLY 1984-02-04 15:00:00 TS -10.0509 112.899 main 191 189 ______P___P_P_ -1 -10.0575 112.915 20 25 1001 -10.0378 112.866 1 27 -10.0575 112.915 TC 25 1001 2 118
1984033S12115 1984 9 SI WA WILLY 1984-02-04 18:00:00 TS -10.0925 112.976 25 1001 bom main 189 189 ______O___P_O_ -1 -10.1000 113.000 20 25 1001 2.00000 -10.0774 112.928 1 27 -10.1000 113.000 TC 25 1001 2 125
1984033S12115 1984 9 SI WA WILLY 1984-02-04 21:00:00 TS -10.1378 113.028 main 189 189 ______P___P_P_ -1 -10.1425 113.043 20 25 1000 -10.1284 113.000 1 27 -10.1425 113.043 TC 27 1000 2 131
1984033S12115 1984 9 SI WA WILLY 1984-02-05 00:00:00 TS -10.2000 113.100 25 1000 bom main 195 190 ______O___O_O_ -1 -10.2000 113.100 20 25 1000 2.00000 -10.2000 113.100 1 27 -10.2000 113.100 TC 30 1000 3 123
1984033S12115 1984 9 SI WA WILLY 1984-02-05 03:00:00 TS -10.2776 113.254 main 198 195 ______P___P_P_ -1 -10.2850 113.228 20 27 999 -10.2629 113.307 1 28 -10.2850 113.228 TC 30 999 4 119
1984033S12115 1984 9 SI WA WILLY 1984-02-05 06:00:00 TS -10.3842 113.444 30 999 bom main 206 202 ______O___P_O_ -1 -10.4000 113.400 20 30 999 2.50000 -10.3527 113.532 1 29 -10.4000 113.400 TC 30 999 5 119
1984033S12115 1984 9 SI WA WILLY 1984-02-05 09:00:00 TS -10.5004 113.664 main 213 213 ______P___P_P_ -1 -10.5050 113.637 20 30 998 -10.4910 113.716 1 30 -10.5050 113.637 TC 32 998 5 132
1984033S12115 1984 9 SI WA WILLY 1984-02-05 12:00:00 TS -10.7000 113.800 30 998 bom main 230 230 ______O___O_O_ -1 -10.7000 113.800 20 30 998 2.50000 -10.7000 113.800 1 32 -10.7000 113.800 TC 35 998 6 169
1984033S12115 1984 9 SI WA WILLY 1984-02-05 15:00:00 TS -11.0516 113.772 main 272 272 ______P___P_P_ -1 -11.0699 113.775 20 30 997 -11.0149 113.765 1 33 -11.0699 113.775 TC 35 997 8 194
1984033S12115 1984 9 SI WA WILLY 1984-02-05 18:00:00 TS -11.4656 113.606 30 996 bom main 321 321 ______O___P_O_ -1 -11.5000 113.600 20 30 996 2.50000 -11.3969 113.617 1 35 -11.5000 113.600 TC 35 996 9 206
1984033S12115 1984 9 SI WA WILLY 1984-02-05 21:00:00 TS -11.8400 113.380 main 360 360 ______P___P_P_ -1 -11.8573 113.390 20 32 995 -11.8054 113.361 1 36 -11.8573 113.390 TC 37 995 10 223
1984033S12115 1984 9 SI WA WILLY 1984-02-06 00:00:00 TS -12.2077 112.900 35 994 bom main 415 415 O_____O___O_O_ jtwc_sh SH191984 -12.3000 111.700 25 -1 -12.2000 113.000 30 35 994 3.00000 -12.2000 113.000 2 38 -12.2000 113.000 TC 40 994 13 237
1984033S12115 1984 9 SI WA WILLY 1984-02-06 03:00:00 TS -12.5691 112.235 main 473 472 P_____P___P_P_ SH191984 -12.6526 111.345 30 -1 -12.5655 112.315 30 35 993 -12.5346 112.519 2 40 -12.5655 112.315 TC 42 993 15 242
1984033S12115 1984 9 SI WA WILLY 1984-02-06 06:00:00 TS -12.9057 111.572 35 992 bom main 504 504 O_____O___P_O_ jtwc_sh SH191984 -13.0000 111.000 35 0 -12.9000 111.600 30 35 992 3.00000 -12.8462 111.946 2 43 -12.9000 111.600 TC 45 992 13 241
1984033S12115 1984 9 SI WA WILLY 1984-02-06 09:00:00 TS -13.2060 111.073 main 541 541 P_____P___P_P_ SH191984 -13.3300 110.677 37 0 -13.1798 111.132 30 37 991 -13.1346 111.350 2 46 -13.1798 111.132 TC 45 991 10 237
1984033S12115 1984 9 SI WA WILLY 1984-02-06 12:00:00 TS -13.4500 110.700 40 990 bom main 570 581 O_____O___O_O_ jtwc_sh SH191984 -13.6000 110.400 40 0 -13.4000 110.800 30 40 990 3.50000 -13.4000 110.800 2 49 -13.4000 110.800 TC 45 990 8 236
1984033S12115 1984 9 SI WA WILLY 1984-02-06 15:00:00 TS -13.6228 110.428 main 599 599 P_____P___P_P_ SH191984 -13.7649 110.192 42 0 -13.5423 110.557 30 45 987 -13.6417 110.404 2 51 -13.5423 110.557 TC 50 987 6 237
1984033S12115 1984 9 SI WA WILLY 1984-02-06 18:00:00 TS -13.7910 110.165 50 985 bom main 625 625 O_____O___P_O_ jtwc_sh SH191984 -13.9000 110.000 45 0 -13.7000 110.300 30 50 985 3.50000 -13.8640 110.061 2 54 -13.7000 110.300 TC 55 985 7 235
1984033S12115 1984 9 SI WA WILLY 1984-02-06 21:00:00 TS -14.0298 109.820 main 656 656 P_____P___P_P_ SH191984 -14.0849 109.780 47 0 -13.9776 109.880 30 52 982 -14.0793 109.738 2 56 -13.9776 109.880 TC 57 982 9 235
1984033S12115 1984 9 SI WA WILLY 1984-02-07 00:00:00 TS -14.3000 109.425 55 980 bom main 697 697 O_____O___O_O_ jtwc_sh SH191984 -14.3000 109.500 50 0 -14.3000 109.400 30 55 980 3.50000 -14.3000 109.400 2 59 -14.3000 109.400 TC 60 980 10 235
1984033S12115 1984 9 SI WA WILLY 1984-02-07 03:00:00 TS -14.5757 109.005 main 740 740 P_____P___P_P_ SH191984 -14.5425 109.130 52 0 -14.6150 108.943 30 57 977 -14.5305 109.004 2 61 -14.6150 108.943 TC 65 977 10 237
1984033S12115 1984 9 SI WA WILLY 1984-02-07 06:00:00 TS -14.8424 108.572 60 975 bom main 773 773 O_____O___P_O_ jtwc_sh SH191984 -14.8000 108.700 55 0 -14.9000 108.500 30 60 975 4.00000 -14.7698 108.587 2 64 -14.9000 108.500 TC 70 975 10 239
1984033S12115 1984 9 SI WA WILLY 1984-02-07 09:00:00 TS -15.0741 108.150 main 817 817 P_____P___P_P_ SH191984 -15.0575 108.250 55 0 -15.1073 108.100 30 62 972 -15.0242 108.151 2 67 -15.1073 108.100 TC 72 972 9 241
1984033S12115 1984 9 SI WA WILLY 1984-02-07 12:00:00 TS -15.3000 107.725 65 970 bom main 843 843 O_____O___O_O_ jtwc_sh SH191984 -15.3000 107.800 55 0 -15.3000 107.700 40 65 970 4.50000 -15.3000 107.700 4 70 -15.3000 107.700 TC 75 970 10 241
1984033S12115 1984 9 SI WA WILLY 1984-02-07 15:00:00 TS -15.5398 107.294 main 870 870 P_____P___P_P_ SH191984 -15.4998 107.400 55 0 -15.5199 107.265 40 67 970 -15.6194 107.248 4 71 -15.5199 107.265 TC 75 970 10 239
1984033S12115 1984 9 SI WA WILLY 1984-02-07 18:00:00 TS -15.8143 106.845 70 970 bom main 912 912 O_____O___P_O_ jtwc_sh SH191984 -15.7000 107.000 55 0 -15.8000 106.800 40 70 970 4.50000 -15.9571 106.780 4 73 -15.8000 106.800 TC 75 970 11 235
1984033S12115 1984 9 SI WA WILLY 1984-02-07 21:00:00 TS -16.1640 106.364 main 963 963 P_____P___P_P_ SH191984 -15.9500 106.558 55 0 -16.2075 106.300 40 72 967 -16.2912 106.298 4 74 -16.2075 106.300 TC 77 967 12 234
1984033S12115 1984 9 SI WA WILLY 1984-02-08 00:00:00 TS -16.5000 105.875 75 965 bom main 1006 1006 O_____O___O_O_ jtwc_sh SH191984 -16.2000 106.100 55 0 -16.6000 105.800 40 75 965 4.50000 -16.6000 105.800 4 76 -16.6000 105.800 TC 80 965 11 238
1984033S12115 1984 9 SI WA WILLY 1984-02-08 03:00:00 TS -16.7254 105.423 main 1040 1040 P_____P___P_P_ SH191984 -16.3999 105.657 55 0 -16.8222 105.365 40 77 962 -16.8573 105.305 4 77 -16.8222 105.365 TC 82 962 10 245
1984033S12115 1984 9 SI WA WILLY 1984-02-08 06:00:00 TS -16.9217 104.949 80 960 bom main 1076 1076 O_____O___P_O_ jtwc_sh SH191984 -16.6000 105.200 55 0 -17.0000 104.900 40 80 960 5.00000 4 -17.0867 104.794 4 78 -17.0000 104.900 TC 85 960 11 246
1984033S12115 1984 9 SI WA WILLY 1984-02-08 09:00:00 TS -17.1637 104.415 main 1118 1118 P_____P___P_P_ SH191984 -16.8272 104.737 55 0 -17.2649 104.330 40 80 962 -17.2978 104.261 4 79 -17.2649 104.330 TC 82 962 12 246
1984033S12115 1984 9 SI WA WILLY 1984-02-08 12:00:00 TS -17.4000 103.825 80 964 bom main 1154 1154 O_____O___O_O_ jtwc_sh SH191984 -17.1000 104.200 55 0 -17.5000 103.700 40 80 964 5.00000 -17.5000 103.700 4 81 -17.5000 103.700 TC 80 964 12 251
1984033S12115 1984 9 SI WA WILLY 1984-02-08 15:00:00 TS -17.5673 103.207 main 1193 1193 P_____P___P_P_ SH191984 -17.4197 103.560 52 0 -17.5924 103.049 40 80 964 -17.6646 103.170 4 79 -17.5924 103.049 TC 80 964 13 253
1984033S12115 1984 9 SI WA WILLY 1984-02-08 18:00:00 TS -17.7611 102.561 80 964 bom main 1235 1235 O_____O___P_O_ jtwc_sh SH191984 -17.8000 102.800 50 0 -17.7000 102.400 40 80 964 5.00000 -17.8293 102.603 4 78 -17.7000 102.400 TC 80 964 13 249
1984033S12115 1984 9 SI WA WILLY 1984-02-08 21:00:00 TS -18.0405 101.908 main 1283 1283 P_____P___P_P_ SH191984 -18.2270 101.959 45 0 -17.9089 101.866 40 72 967 -18.0295 101.960 4 77 -17.9528 101.788 TC 77 967 15 244
1984033S12115 1984 9 SI WA WILLY 1984-02-09 00:00:00 TS -18.4231 101.138 65 970 bom main 1358 1358 O_____O___O_O_ jtwc_sh SH191984 -18.7000 101.000 40 0 -18.3000 101.200 40 65 970 3.00000 -18.3000 101.200 4 76 -18.3000 101.200 TC 75 970 19 242
1984033S12115 1984 9 SI WA WILLY 1984-02-09 03:00:00 NR -18.9318 100.115 main 1456 1456 P_____P___P___ SH191984 -19.1850 99.9221 40 0 -19.0157 100.162 40 60 975 -18.5946 100.261 4 66 TC 23 243
1984033S12115 1984 9 SI WA WILLY 1984-02-09 06:00:00 NR -19.4566 99.0023 55 980 bom main 1553 1553 O_____O___P___ jtwc_sh SH191984 -19.7000 98.8000 40 0 -19.7000 99.0000 30 55 980 3.00000 -18.9699 99.2068 4 57 23 245
1984033S12115 1984 9 SI WA WILLY 1984-02-09 09:00:00 NR -19.8934 97.9243 main 1653 1653 P_____P___P___ SH191984 -20.2269 97.7341 37 0 -19.9935 97.9390 30 47 987 -19.4599 98.0996 4 47 22 246
1984033S12115 1984 9 SI WA WILLY 1984-02-09 12:00:00 NR -20.3333 96.9000 40 994 bom main 1745 1745 O_____O___O___ jtwc_sh SH191984 -20.8000 96.7000 35 0 -20.1000 97.0000 30 40 994 2.50000 -20.1000 97.0000 2 38 20 244
1984033S12115 1984 9 SI WA WILLY 1984-02-09 15:00:00 NR -20.7834 95.9628 main 1827 1827 P_____P___P___ SH191984 -21.4121 95.6766 32 -1 -20.0078 96.3598 30 36 995 -20.9304 95.8521 2 34 21 240
1984033S12115 1984 9 SI WA WILLY 1984-02-09 16:00:00 NR -21.0247 95.6054 35 996 bom main 1862 1862 P_____O___P___ SH191984 -21.6317 95.3446 31 -1 -20.2000 96.0000 30 35 996 2.00000 -21.2425 95.4716 2 32 28 231
1984033S12115 1984 9 SI WA WILLY 1984-02-09 18:00:00 NR -21.6651 94.7856 30 1000 bom main 1924 1924 O_____O___P___ jtwc_sh SH191984 -22.1000 94.7000 30 -1 -21.1000 94.9000 20 30 1000 2.00000 -21.9039 94.7353 2 30 30 224
1984033S12115 1984 9 SI WA WILLY 1984-02-09 21:00:00 NR -22.7911 93.7430 main 2012 2010 P_____P___P___ SH191984 -22.8758 93.7848 27 -1 -22.5899 93.7155 20 27 1001 -22.9500 93.7495 2 26 28 216
1984033S12115 1984 9 SI WA WILLY 1984-02-10 00:00:00 NR -23.9667 92.9889 25 1002 bom main 2054 2054 O_____O___O___ jtwc_sh SH191984 -23.7000 92.9000 25 -1 -24.0000 93.0000 20 25 1002 1.50000 -24.0000 93.0000 1 22 25 206
1984033S12115 1984 9 SI WA WILLY 1984-02-10 03:00:00 NR -25.0347 92.5456 main 2086 2079 ______P___P___ SH191984 -1 -25.0240 92.4333 20 25 1002 -25.0454 92.6578 1 22 21 195
1984033S12115 1984 9 SI WA WILLY 1984-02-10 06:00:00 NR -25.9869 92.3782 25 1002 bom main 2082 2074 ______O___P___ -1 -25.9000 92.2000 20 25 1002 1.00000 -26.0739 92.5565 1 22 19 183
1984033S12115 1984 9 SI WA WILLY 1984-02-10 09:00:00 NR -26.9703 92.4425 main 2074 2062 ______P___P___ -1 -26.9249 92.3318 20 25 1003 -27.0156 92.5531 1 22 18 176
1984033S12115 1984 9 SI WA WILLY 1984-02-10 12:00:00 NR -27.8000 92.5000 25 1004 bom main 2062 2062 ______O___O___ -1 -27.8000 92.5000 20 25 1004 1.00000 -27.8000 92.5000 1 22 14 186
1984033S12115 1984 9 SI WA WILLY 1984-02-10 15:00:00 NR -28.3622 92.2886 main 2082 2082 ______P___P___ -1 -28.3473 92.2981 20 22 1006 -28.3770 92.2791 1 20 11 209
1984033S12115 1984 9 SI WA WILLY 1984-02-10 18:00:00 NR -28.7409 91.9027 20 1008 bom main 2122 2122 ______O___P___ -1 -28.7000 91.9000 20 20 1008 1.50000 -28.7818 91.9055 1 19 10 228
1984033S12115 1984 9 SI WA WILLY 1984-02-10 21:00:00 NR -29.0380 91.4234 main 2172 2172 ______P___P___ -1 -29.0055 91.4178 20 20 1008 -29.0706 91.4290 1 17 10 237
1984033S12115 1984 9 SI WA WILLY 1984-02-11 00:00:00 NR -29.3000 90.9000 20 1008 bom main 2222 ______O___O___ -1 -29.3000 90.9000 20 20 1008 1.50000 -29.3000 90.9000 1 16 11 240

IBTrACS Databaseについて

本データベースは、米国NOAAが公開する1842年以降の世界の熱帯低気圧のベストトラックデータアーカイブInternational Best Track Archive for Climate Stewardship (IBTrACS)を、ウェブで閲覧しやすい形式に変換したものです。

最終更新日:2021-12-08